createdAt,value
2023-04-03T00:01:21.595Z,99.90
2023-04-03T00:03:49.401Z,99.90
2023-04-03T00:06:17.128Z,99.90
2023-04-03T00:08:46.235Z,99.90
2023-04-03T00:11:14.052Z,99.90
2023-04-03T00:13:41.978Z,99.90
2023-04-03T00:16:11.163Z,99.60
2023-04-03T00:18:41.807Z,99.90
2023-04-03T00:21:11.550Z,99.90
2023-04-03T00:23:39.315Z,99.90
2023-04-03T00:26:08.370Z,99.90
2023-04-03T00:28:36.116Z,99.90
2023-04-03T00:31:04.039Z,99.90
2023-04-03T00:33:31.759Z,99.90
2023-04-03T00:35:59.484Z,99.90
2023-04-03T00:38:27.323Z,99.90
2023-04-03T00:40:55.027Z,99.90
2023-04-03T00:43:25.944Z,99.90
2023-04-03T00:45:54.878Z,99.90
2023-04-03T00:48:26.304Z,99.90
2023-04-03T00:50:54.640Z,99.90
2023-04-03T00:53:27.626Z,99.90
2023-04-03T00:55:56.873Z,99.90
2023-04-03T00:58:33.731Z,99.90
2023-04-03T01:01:08.598Z,99.90
2023-04-03T01:03:37.068Z,99.90
2023-04-03T01:06:05.964Z,99.90
2023-04-03T01:08:33.903Z,99.90
2023-04-03T01:11:01.830Z,99.90
2023-04-03T01:13:33.110Z,99.90
2023-04-03T01:16:03.887Z,99.90
2023-04-03T01:18:33.021Z,99.90
2023-04-03T01:21:30.690Z,99.90
2023-04-03T01:24:18.499Z,99.90
2023-04-03T01:26:46.975Z,99.90
2023-04-03T01:29:16.478Z,99.90
2023-04-03T01:31:54.390Z,99.90
2023-04-03T01:34:22.848Z,99.90
2023-04-03T01:36:51.531Z,99.90
2023-04-03T01:39:19.674Z,99.90
2023-04-03T01:41:47.572Z,99.90
2023-04-03T01:44:16.391Z,99.90
2023-04-03T01:46:44.232Z,99.90
2023-04-03T01:49:13.288Z,99.90
2023-04-03T01:51:41.046Z,99.90
2023-04-03T01:54:08.881Z,99.90
2023-04-03T01:56:36.612Z,99.90
2023-04-03T01:59:04.439Z,99.90
2023-04-03T02:01:32.198Z,99.90
2023-04-03T02:03:59.944Z,99.90
2023-04-03T02:06:29.028Z,99.90
2023-04-03T02:08:56.745Z,99.90
2023-04-03T02:11:24.453Z,99.90
2023-04-03T02:13:52.189Z,99.90
2023-04-03T02:16:19.929Z,99.90
2023-04-03T02:18:47.879Z,99.90
2023-04-03T02:21:15.570Z,99.90
2023-04-03T02:23:44.658Z,99.90
2023-04-03T02:26:14.588Z,99.90
2023-04-03T02:28:42.932Z,99.90
2023-04-03T02:31:11.953Z,99.90
2023-04-03T02:33:40.105Z,99.90
2023-04-03T02:36:09.390Z,99.90
2023-04-03T02:38:37.255Z,99.90
2023-04-03T02:41:08.312Z,99.90
2023-04-03T02:43:36.627Z,99.90
2023-04-03T02:46:04.917Z,99.90
2023-04-03T02:48:32.666Z,99.90
2023-04-03T02:51:00.536Z,99.90
2023-04-03T02:53:28.258Z,99.90
2023-04-03T02:55:55.981Z,99.90
2023-04-03T02:58:25.055Z,99.90
2023-04-03T03:00:52.755Z,99.90
2023-04-03T03:03:20.518Z,99.90
2023-04-03T03:05:49.045Z,99.90
2023-04-03T03:08:16.843Z,99.90
2023-04-03T03:10:44.565Z,99.90
2023-04-03T03:13:12.302Z,99.90
2023-04-03T03:15:41.324Z,99.90
2023-04-03T03:18:09.105Z,99.90
2023-04-03T03:20:37.049Z,99.90
2023-04-03T03:23:05.242Z,99.90
2023-04-03T03:25:32.978Z,99.90
2023-04-03T03:28:00.693Z,99.90
2023-04-03T03:30:28.385Z,99.90
2023-04-03T03:32:57.437Z,99.90
2023-04-03T03:35:25.425Z,99.90
2023-04-03T03:37:53.231Z,99.90
2023-04-03T03:40:20.934Z,99.90
2023-04-03T03:42:48.674Z,99.90
2023-04-03T03:45:16.550Z,99.90
2023-04-03T03:47:44.355Z,99.90
2023-04-03T03:50:13.650Z,99.90
2023-04-03T03:52:41.679Z,99.90
2023-04-03T03:55:09.970Z,99.90
2023-04-03T03:57:37.757Z,99.90
2023-04-03T04:00:06.596Z,99.90
2023-04-03T04:02:34.579Z,99.90
2023-04-03T04:05:02.471Z,99.90
2023-04-03T04:07:31.520Z,99.90
2023-04-03T04:09:59.273Z,99.90
2023-04-03T04:12:27.027Z,99.90
2023-04-03T04:14:54.746Z,99.90
2023-04-03T04:17:23.074Z,99.90
2023-04-03T04:19:50.934Z,99.90
2023-04-03T04:22:18.706Z,99.90
2023-04-03T04:24:47.863Z,99.90
2023-04-03T04:27:16.537Z,99.90
2023-04-03T04:29:44.286Z,99.90
2023-04-03T04:32:12.092Z,99.90
2023-04-03T04:34:40.000Z,99.90
2023-04-03T04:37:07.825Z,99.90
2023-04-03T04:39:35.662Z,99.90
2023-04-03T04:42:04.788Z,99.90
2023-04-03T04:44:32.505Z,99.90
2023-04-03T04:47:00.461Z,99.90
2023-04-03T04:49:28.213Z,99.90
2023-04-03T04:51:55.905Z,99.90
2023-04-03T04:54:23.636Z,99.90
2023-04-03T04:56:51.395Z,99.90
2023-04-03T04:59:21.977Z,99.90
2023-04-03T05:01:49.929Z,99.90
2023-04-03T05:04:18.418Z,99.90
2023-04-03T05:06:46.295Z,99.90
2023-04-03T05:09:14.263Z,99.90
2023-04-03T05:11:41.964Z,99.90
2023-04-03T05:14:09.728Z,99.90
2023-04-03T05:16:38.882Z,99.90
2023-04-03T05:19:06.785Z,99.90
2023-04-03T05:21:34.617Z,99.90
2023-04-03T05:24:03.778Z,99.90
2023-04-03T05:26:32.653Z,99.90
2023-04-03T05:29:00.585Z,99.90
2023-04-03T05:31:30.329Z,99.90
2023-04-03T05:34:00.021Z,99.90
2023-04-03T05:36:27.862Z,99.90
2023-04-03T05:38:57.145Z,99.90
2023-04-03T05:41:25.075Z,99.90
2023-04-03T05:43:53.092Z,99.90
2023-04-03T05:46:23.075Z,99.90
2023-04-03T05:48:51.442Z,99.90
2023-04-03T05:51:23.667Z,99.90
2023-04-03T05:53:56.991Z,99.90
2023-04-03T05:56:24.793Z,99.90
2023-04-03T05:58:52.500Z,99.90
2023-04-03T06:01:20.359Z,99.90
2023-04-03T06:03:48.181Z,99.90
2023-04-03T06:06:16.394Z,99.90
2023-04-03T06:08:45.556Z,99.90
2023-04-03T06:11:13.320Z,99.90
2023-04-03T06:13:41.047Z,99.90
2023-04-03T06:16:10.550Z,99.90
2023-04-03T06:18:38.292Z,99.90
2023-04-03T06:21:08.662Z,99.90
2023-04-03T06:23:36.646Z,99.90
2023-04-03T06:26:06.481Z,99.90
2023-04-03T06:28:34.228Z,99.90
2023-04-03T06:31:02.078Z,99.90
2023-04-03T06:33:29.813Z,99.90
2023-04-03T06:35:59.558Z,99.90
2023-04-03T06:38:27.453Z,99.90
2023-04-03T06:40:55.189Z,99.90
2023-04-03T06:43:25.251Z,99.90
2023-04-03T06:45:53.012Z,99.90
2023-04-03T06:48:20.885Z,99.90
2023-04-03T06:50:48.595Z,99.90
2023-04-03T06:53:16.681Z,99.90
2023-04-03T06:55:44.857Z,99.90
2023-04-03T06:58:12.592Z,99.90
2023-04-03T07:00:41.875Z,99.90
2023-04-03T07:03:09.641Z,99.90
2023-04-03T07:05:37.585Z,99.90
2023-04-03T07:08:05.774Z,99.90
2023-04-03T07:10:33.537Z,99.90
2023-04-03T07:13:02.526Z,99.90
2023-04-03T07:15:30.776Z,99.90
2023-04-03T07:17:59.848Z,99.90
2023-04-03T07:20:27.627Z,99.90
2023-04-03T07:22:55.429Z,99.90
2023-04-03T07:25:23.170Z,99.90
2023-04-03T07:27:51.146Z,99.90
2023-04-03T07:30:19.674Z,99.90
2023-04-03T07:32:47.440Z,99.90
2023-04-03T07:35:17.295Z,99.90
2023-04-03T07:37:45.329Z,99.90
2023-04-03T07:40:13.749Z,99.90
2023-04-03T07:42:41.438Z,99.90
2023-04-03T07:45:10.193Z,99.90
2023-04-03T07:47:37.956Z,99.90
2023-04-03T07:50:06.393Z,99.90
2023-04-03T07:52:35.418Z,99.90
2023-04-03T07:55:03.185Z,99.90
2023-04-03T07:57:30.903Z,99.90
2023-04-03T07:59:58.653Z,99.90
2023-04-03T08:02:26.570Z,99.90
2023-04-03T08:04:54.600Z,99.90
2023-04-03T08:07:22.530Z,99.90
2023-04-03T08:09:51.750Z,99.90
2023-04-03T08:12:19.959Z,99.90
2023-04-03T08:14:47.784Z,99.90
2023-04-03T08:17:15.857Z,99.90
2023-04-03T08:19:43.560Z,99.90
2023-04-03T08:22:11.609Z,99.90
2023-04-03T08:24:43.143Z,99.90
2023-04-03T08:27:18.420Z,99.90
2023-04-03T08:29:46.628Z,99.90
2023-04-03T08:32:14.388Z,99.90
2023-04-03T08:34:42.321Z,99.90
2023-04-03T08:37:10.035Z,99.90
2023-04-03T08:39:37.860Z,99.40
2023-04-03T08:42:16.437Z,98.90
2023-04-03T08:44:49.792Z,98.30
2023-04-03T08:47:26.299Z,99.20
2023-04-03T08:49:57.795Z,98.70
2023-04-03T08:52:31.903Z,98.70
2023-04-03T08:55:02.607Z,98.90
2023-04-03T08:57:33.520Z,99.20
2023-04-03T09:00:06.816Z,98.80
2023-04-03T09:02:42.088Z,97.40
2023-04-03T09:05:14.755Z,96.80
2023-04-03T09:07:48.434Z,96.80
2023-04-03T09:10:21.791Z,97.30
2023-04-03T09:12:55.721Z,97.70
2023-04-03T09:15:37.973Z,97.80
2023-04-03T09:18:15.530Z,96.30
2023-04-03T09:20:48.557Z,97.30
2023-04-03T09:23:22.530Z,96.50
2023-04-03T09:25:51.896Z,96.20
2023-04-03T09:28:19.660Z,96.80
2023-04-03T09:30:48.796Z,97.00
2023-04-03T09:33:17.474Z,97.60
2023-04-03T09:35:48.664Z,97.80
2023-04-03T09:38:19.882Z,97.80
2023-04-03T09:40:50.152Z,97.30
2023-04-03T09:43:27.047Z,97.90
2023-04-03T09:45:57.557Z,97.30
2023-04-03T09:48:26.652Z,95.90
2023-04-03T09:51:00.675Z,94.50
2023-04-03T09:53:32.218Z,94.80
2023-04-03T09:56:01.322Z,93.70
2023-04-03T09:58:42.573Z,92.40
2023-04-03T10:01:28.341Z,93.60
2023-04-03T10:04:11.815Z,91.30
2023-04-03T10:06:44.311Z,92.60
2023-04-03T10:09:22.056Z,92.10
2023-04-03T10:12:02.088Z,91.60
2023-04-03T10:14:30.024Z,92.10
2023-04-03T10:17:07.850Z,91.70
2023-04-03T10:19:41.265Z,90.60
2023-04-03T10:22:21.826Z,90.40
2023-04-03T10:25:02.195Z,90.70
2023-04-03T10:27:40.913Z,90.10
2023-04-03T10:30:22.812Z,88.40
2023-04-03T10:33:00.479Z,91.10
2023-04-03T10:35:41.402Z,91.10
2023-04-03T10:38:17.699Z,89.30
2023-04-03T10:40:53.344Z,87.30
2023-04-03T10:43:31.240Z,89.30
2023-04-03T10:46:04.150Z,89.10
2023-04-03T10:48:46.771Z,89.90
2023-04-03T10:51:24.860Z,88.60
2023-04-03T10:53:58.994Z,89.10
2023-04-03T10:56:34.072Z,90.50
2023-04-03T10:59:13.902Z,89.70
2023-04-03T11:01:46.194Z,89.70
2023-04-03T11:04:18.092Z,90.10
2023-04-03T11:06:51.840Z,90.10
2023-04-03T11:09:26.156Z,90.80
2023-04-03T11:11:57.590Z,89.60
2023-04-03T11:14:29.684Z,90.20
2023-04-03T11:17:21.143Z,89.00
2023-04-03T11:19:59.149Z,89.90
2023-04-03T11:22:31.152Z,87.90
2023-04-03T11:25:08.879Z,87.40
2023-04-03T11:27:42.190Z,87.30
2023-04-03T11:30:18.804Z,89.90
2023-04-03T11:33:22.773Z,88.40
2023-04-03T11:35:55.301Z,87.70
2023-04-03T11:38:30.286Z,88.40
2023-04-03T11:40:59.231Z,89.90
2023-04-03T11:43:30.167Z,90.10
2023-04-03T11:46:01.773Z,87.20
2023-04-03T11:48:49.045Z,88.90
2023-04-03T11:51:44.158Z,88.70
2023-04-03T11:54:44.024Z,90.90
2023-04-03T11:57:47.970Z,88.50
2023-04-03T12:00:51.583Z,87.00
2023-04-03T12:03:53.198Z,87.20
2023-04-03T12:06:57.645Z,86.00
2023-04-03T12:09:36.867Z,86.10
2023-04-03T12:12:29.675Z,86.50
2023-04-03T12:14:57.569Z,86.00
2023-04-03T12:17:30.316Z,87.00
2023-04-03T12:19:58.092Z,86.80
2023-04-03T12:22:25.852Z,84.00
2023-04-03T12:24:55.487Z,86.20
2023-04-03T12:27:30.010Z,82.00
2023-04-03T12:30:04.473Z,81.20
2023-04-03T12:32:49.380Z,81.70
2023-04-03T12:35:27.177Z,83.20
2023-04-03T12:38:34.352Z,85.00
2023-04-03T12:41:19.883Z,89.00
2023-04-03T12:44:00.186Z,81.60
2023-04-03T12:46:36.696Z,83.40
2023-04-03T12:49:14.604Z,79.90
2023-04-03T12:51:44.312Z,83.30
2023-04-03T12:54:17.347Z,83.00
2023-04-03T12:56:46.440Z,81.50
2023-04-03T12:59:19.148Z,81.40
2023-04-03T13:01:56.142Z,81.90
2023-04-03T13:04:24.265Z,83.70
2023-04-03T13:06:52.561Z,81.20
2023-04-03T13:09:23.613Z,81.40
2023-04-03T13:11:58.385Z,79.70
2023-04-03T13:14:29.095Z,83.50
2023-04-03T13:16:58.143Z,82.20
2023-04-03T13:19:28.382Z,78.50
2023-04-03T13:22:02.590Z,76.20
2023-04-03T13:24:31.241Z,76.80
2023-04-03T13:27:00.386Z,79.20
2023-04-03T13:29:31.843Z,80.00
2023-04-03T13:32:01.478Z,81.40
2023-04-03T13:34:32.521Z,80.60
2023-04-03T13:37:05.250Z,79.60
2023-04-03T13:39:35.665Z,80.80
2023-04-03T13:42:18.036Z,79.90
2023-04-03T13:44:48.505Z,77.80
2023-04-03T13:47:20.007Z,78.70
2023-04-03T13:50:01.637Z,77.30
2023-04-03T13:52:33.485Z,80.90
2023-04-03T13:55:05.790Z,79.30
2023-04-03T13:57:37.154Z,77.80
2023-04-03T14:00:29.667Z,79.60
2023-04-03T14:02:59.039Z,76.10
2023-04-03T14:05:27.643Z,79.30
2023-04-03T14:07:56.237Z,77.00
2023-04-03T14:10:24.190Z,76.90
2023-04-03T14:12:53.270Z,76.80
2023-04-03T14:15:25.592Z,77.30
2023-04-03T14:17:54.107Z,76.70
2023-04-03T14:20:23.769Z,76.90
2023-04-03T14:22:52.165Z,77.60
2023-04-03T14:25:21.199Z,77.10
2023-04-03T14:27:51.410Z,78.90
2023-04-03T14:30:23.717Z,78.30
2023-04-03T14:32:52.127Z,79.00
2023-04-03T14:35:21.083Z,76.70
2023-04-03T14:37:53.153Z,76.50
2023-04-03T14:40:24.293Z,77.30
2023-04-03T14:42:52.249Z,74.10
2023-04-03T14:45:21.441Z,73.20
2023-04-03T14:47:52.618Z,74.90
2023-04-03T14:50:23.685Z,75.10
2023-04-03T14:52:54.530Z,73.90
2023-04-03T14:55:24.652Z,73.20
2023-04-03T14:57:52.807Z,74.20
2023-04-03T15:00:24.031Z,74.20
2023-04-03T15:02:52.463Z,72.50
2023-04-03T15:05:20.555Z,74.40
2023-04-03T15:07:51.959Z,74.40
2023-04-03T15:10:21.528Z,75.70
2023-04-03T15:12:50.796Z,76.40
2023-04-03T15:15:21.726Z,78.20
2023-04-03T15:17:54.890Z,78.70
2023-04-03T15:20:25.276Z,78.90
2023-04-03T15:22:53.079Z,77.80
2023-04-03T15:25:20.827Z,77.60
2023-04-03T15:27:48.897Z,77.80
2023-04-03T15:30:19.617Z,78.60
2023-04-03T15:32:49.382Z,78.40
2023-04-03T15:35:17.363Z,78.40
2023-04-03T15:37:45.232Z,77.00
2023-04-03T15:40:13.481Z,78.20
2023-04-03T15:42:41.742Z,76.60
2023-04-03T15:45:10.667Z,77.50
2023-04-03T15:47:38.794Z,79.70
2023-04-03T15:50:09.210Z,76.30
2023-04-03T15:52:37.304Z,75.90
2023-04-03T15:55:05.508Z,78.20
2023-04-03T16:00:00.908Z,76.50
2023-04-03T16:02:29.207Z,75.90
2023-04-03T16:04:57.508Z,78.70
2023-04-03T16:07:27.035Z,75.60
2023-04-03T16:09:54.795Z,75.10
2023-04-03T16:12:22.499Z,77.40
2023-04-03T16:14:50.288Z,72.80
2023-04-03T16:17:18.128Z,73.70
2023-04-03T16:19:45.849Z,73.40
2023-04-03T16:22:13.669Z,73.90
2023-04-03T16:24:42.803Z,74.40
2023-04-03T16:27:10.890Z,77.80
2023-04-03T16:29:38.623Z,75.50
2023-04-03T16:32:06.432Z,75.10
2023-04-03T16:34:34.317Z,76.00
2023-04-03T16:37:02.377Z,74.20
2023-04-03T16:39:30.318Z,73.90
2023-04-03T16:41:59.408Z,74.80
2023-04-03T16:44:27.201Z,75.40
2023-04-03T16:46:55.088Z,75.70
2023-04-03T16:49:22.891Z,76.50
2023-04-03T16:51:50.746Z,77.80
2023-04-03T16:54:18.590Z,79.60
2023-04-03T16:56:46.309Z,78.60
2023-04-03T16:59:15.548Z,78.90
2023-04-03T17:01:43.343Z,79.10
2023-04-03T17:04:11.250Z,81.00
2023-04-03T17:06:38.996Z,79.50
2023-04-03T17:09:07.416Z,78.40
2023-04-03T17:14:03.314Z,77.80
2023-04-03T17:16:34.267Z,78.30
2023-04-03T17:19:02.198Z,78.50
2023-04-03T17:21:29.930Z,78.30
2023-04-03T17:24:00.780Z,78.40
2023-04-03T17:26:29.221Z,79.20
2023-04-03T17:28:57.308Z,79.10
2023-04-03T17:31:25.104Z,79.00
2023-04-03T17:33:54.237Z,77.60
2023-04-03T17:36:22.062Z,77.90
2023-04-03T17:38:52.000Z,79.00
2023-04-03T17:41:19.751Z,78.40
2023-04-03T17:43:47.680Z,78.10
2023-04-03T17:46:16.724Z,78.60
2023-04-03T17:48:44.884Z,78.40
2023-04-03T17:51:16.291Z,78.80
2023-04-03T17:53:44.591Z,78.90
2023-04-03T17:56:15.183Z,78.10
2023-04-03T17:58:43.974Z,79.50
2023-04-03T18:01:13.313Z,80.00
2023-04-03T18:03:41.755Z,80.00
2023-04-03T18:06:14.194Z,80.60
2023-04-03T18:08:45.211Z,80.40
2023-04-03T18:11:14.016Z,81.00
2023-04-03T18:13:42.279Z,81.30
2023-04-03T18:16:12.109Z,81.70
2023-04-03T18:18:40.432Z,81.70
2023-04-03T18:21:10.601Z,81.80
2023-04-03T18:23:42.512Z,81.90
2023-04-03T18:26:11.859Z,82.10
2023-04-03T18:28:42.646Z,82.40
2023-04-03T18:31:13.172Z,82.80
2023-04-03T18:33:40.899Z,83.40
2023-04-03T18:36:09.120Z,83.40
2023-04-03T18:38:36.869Z,83.90
2023-04-03T18:41:09.254Z,83.70
2023-04-03T18:43:37.213Z,83.50
2023-04-03T18:46:06.112Z,83.90
2023-04-03T18:48:34.450Z,84.20
2023-04-03T18:51:02.698Z,84.70
2023-04-03T18:53:30.548Z,85.00
2023-04-03T18:55:58.322Z,85.10
2023-04-03T18:58:27.396Z,85.70
2023-04-03T19:00:55.348Z,86.00
2023-04-03T19:03:23.370Z,86.30
2023-04-03T19:05:51.241Z,86.10
2023-04-03T19:08:19.126Z,86.50
2023-04-03T19:10:46.878Z,86.80
2023-04-03T19:13:14.602Z,86.70
2023-04-03T19:15:44.613Z,87.20
2023-04-03T19:18:12.339Z,87.40
2023-04-03T19:20:40.118Z,87.90
2023-04-03T19:23:08.581Z,88.20
2023-04-03T19:25:36.446Z,88.40
2023-04-03T19:28:04.232Z,88.60
2023-04-03T19:30:32.743Z,89.50
2023-04-03T19:33:02.231Z,90.00
2023-04-03T19:35:30.010Z,90.20
2023-04-03T19:37:57.809Z,90.40
2023-04-03T19:40:28.910Z,90.60
2023-04-03T19:42:56.645Z,90.50
2023-04-03T19:45:26.282Z,90.70
2023-04-03T19:47:54.438Z,90.70
2023-04-03T19:50:23.540Z,91.40
2023-04-03T19:52:51.305Z,91.20
2023-04-03T19:55:19.127Z,91.20
2023-04-03T19:57:46.893Z,91.40
2023-04-03T20:00:15.541Z,91.60
2023-04-03T20:02:43.314Z,91.80
2023-04-03T20:05:12.125Z,91.80
2023-04-03T20:07:41.561Z,91.90
2023-04-03T20:10:11.930Z,92.10
2023-04-03T20:12:39.661Z,92.20
2023-04-03T20:15:08.996Z,92.40
2023-04-03T20:17:37.562Z,92.60
2023-04-03T20:20:06.669Z,92.80
2023-04-03T20:22:36.170Z,93.20
2023-04-03T20:25:06.911Z,93.90
2023-04-03T20:27:35.446Z,93.70
2023-04-03T20:30:04.250Z,93.80
2023-04-03T20:32:33.570Z,94.10
2023-04-03T20:35:04.233Z,94.00
2023-04-03T20:37:32.541Z,94.00
2023-04-03T20:40:00.341Z,94.40
2023-04-03T20:42:29.657Z,94.50
2023-04-03T20:44:57.467Z,94.50
2023-04-03T20:49:53.736Z,94.90
2023-04-03T20:52:21.552Z,94.80
2023-04-03T20:54:49.439Z,94.80
2023-04-03T20:57:17.631Z,94.60
2023-04-03T20:59:46.669Z,94.60
2023-04-03T21:02:15.566Z,94.70
2023-04-03T21:04:48.205Z,94.80
2023-04-03T21:07:54.356Z,94.60
2023-04-03T21:11:00.026Z,94.90
2023-04-03T21:14:05.412Z,94.70
2023-04-03T21:16:36.241Z,94.50
2023-04-03T21:19:15.694Z,95.00
2023-04-03T21:21:45.637Z,95.20
2023-04-03T21:24:17.495Z,95.40
2023-04-03T21:26:45.903Z,95.50
2023-04-03T21:29:14.070Z,95.50
2023-04-03T21:31:52.364Z,95.30
2023-04-03T21:34:23.479Z,95.20
2023-04-03T21:36:51.773Z,95.30
2023-04-03T21:39:19.749Z,95.30
2023-04-03T21:41:47.616Z,95.10
2023-04-03T21:44:15.859Z,95.10
2023-04-03T21:46:44.190Z,95.00
2023-04-03T21:49:12.083Z,95.20
2023-04-03T21:51:41.900Z,95.00
2023-04-03T21:54:09.606Z,94.80
2023-04-03T21:56:37.315Z,94.90
2023-04-03T21:59:05.290Z,95.30
2023-04-03T22:01:33.232Z,95.50
2023-04-03T22:04:02.437Z,95.60
2023-04-03T22:06:30.674Z,96.00
2023-04-03T22:08:59.778Z,96.50
2023-04-03T22:11:29.027Z,96.50
2023-04-03T22:13:56.968Z,96.80
2023-04-03T22:16:24.861Z,97.00
2023-04-03T22:18:53.441Z,97.00
2023-04-03T22:21:22.022Z,97.00
2023-04-03T22:23:50.014Z,97.10
2023-04-03T22:26:19.061Z,96.90
2023-04-03T22:28:48.336Z,96.80
2023-04-03T22:31:16.860Z,96.90
2023-04-03T22:33:46.122Z,97.10
2023-04-03T22:36:14.930Z,97.20
2023-04-03T22:38:43.994Z,97.10
2023-04-03T22:41:12.336Z,97.00
2023-04-03T22:43:42.475Z,97.00
2023-04-03T22:46:10.894Z,96.90
2023-04-03T22:48:42.173Z,97.20
2023-04-03T22:51:10.112Z,97.00
2023-04-03T22:53:38.766Z,96.70
2023-04-03T22:56:10.516Z,96.80
2023-04-03T22:58:38.867Z,96.70
2023-04-03T23:01:09.359Z,97.10
2023-04-03T23:03:38.379Z,97.30
2023-04-03T23:06:06.949Z,97.10
2023-04-03T23:08:35.512Z,97.00
2023-04-03T23:11:03.268Z,96.70
2023-04-03T23:13:31.035Z,96.70
2023-04-03T23:16:00.734Z,96.50
2023-04-03T23:18:32.498Z,96.60
2023-04-03T23:21:01.031Z,96.70
2023-04-03T23:23:28.756Z,96.50
2023-04-03T23:25:58.624Z,96.60
2023-04-03T23:28:26.468Z,96.80
2023-04-03T23:30:59.348Z,97.10
2023-04-03T23:33:27.121Z,97.20
2023-04-03T23:35:58.307Z,97.40
2023-04-03T23:38:26.458Z,97.40
2023-04-03T23:40:54.191Z,97.30
2023-04-03T23:43:21.897Z,97.60
2023-04-03T23:45:49.615Z,97.70
2023-04-03T23:48:18.057Z,97.80
2023-04-03T23:50:45.767Z,98.10
2023-04-03T23:53:14.797Z,97.80
2023-04-03T23:55:42.786Z,97.50
2023-04-03T23:58:11.669Z,97.40
